sensor_id;sensor_type;location;lat;lon;timestamp;P1;durP1;ratioP1;P2;durP2;ratioP2
13584;SDS011;6863;48.402;9.994;2022-10-23T00:01:12;10.97;;;9.33;;
13584;SDS011;6863;48.402;9.994;2022-10-23T00:03:39;15.90;;;10.20;;
13584;SDS011;6863;48.402;9.994;2022-10-23T00:06:05;12.30;;;9.20;;
13584;SDS011;6863;48.402;9.994;2022-10-23T00:08:31;11.70;;;9.03;;
13584;SDS011;6863;48.402;9.994;2022-10-23T00:10:57;19.37;;;13.97;;
13584;SDS011;6863;48.402;9.994;2022-10-23T00:13:23;31.20;;;16.37;;
13584;SDS011;6863;48.402;9.994;2022-10-23T00:15:48;21.67;;;14.03;;
13584;SDS011;6863;48.402;9.994;2022-10-23T00:18:14;17.00;;;13.10;;
13584;SDS011;6863;48.402;9.994;2022-10-23T00:20:39;16.67;;;12.93;;
13584;SDS011;6863;48.402;9.994;2022-10-23T00:23:05;19.70;;;13.17;;
13584;SDS011;6863;48.402;9.994;2022-10-23T00:25:31;17.30;;;14.40;;
13584;SDS011;6863;48.402;9.994;2022-10-23T00:27:57;16.13;;;13.00;;
13584;SDS011;6863;48.402;9.994;2022-10-23T00:30:23;16.77;;;12.67;;
13584;SDS011;6863;48.402;9.994;2022-10-23T00:32:49;15.63;;;12.63;;
13584;SDS011;6863;48.402;9.994;2022-10-23T00:35:14;10.63;;;9.53;;
13584;SDS011;6863;48.402;9.994;2022-10-23T00:37:40;13.23;;;9.77;;
13584;SDS011;6863;48.402;9.994;2022-10-23T00:40:06;13.13;;;9.40;;
13584;SDS011;6863;48.402;9.994;2022-10-23T00:42:32;11.40;;;8.77;;
13584;SDS011;6863;48.402;9.994;2022-10-23T00:45:12;9.27;;;8.37;;
13584;SDS011;6863;48.402;9.994;2022-10-23T00:47:43;11.03;;;8.77;;
13584;SDS011;6863;48.402;9.994;2022-10-23T00:50:10;12.43;;;9.73;;
13584;SDS011;6863;48.402;9.994;2022-10-23T00:52:37;10.73;;;9.20;;
13584;SDS011;6863;48.402;9.994;2022-10-23T00:55:09;13.37;;;9.50;;
13584;SDS011;6863;48.402;9.994;2022-10-23T00:57:35;10.03;;;9.03;;
13584;SDS011;6863;48.402;9.994;2022-10-23T01:00:05;10.10;;;9.10;;
13584;SDS011;6863;48.402;9.994;2022-10-23T01:02:30;11.60;;;9.63;;
13584;SDS011;6863;48.402;9.994;2022-10-23T01:04:56;9.37;;;8.40;;
13584;SDS011;6863;48.402;9.994;2022-10-23T01:15:42;8.77;;;7.93;;
13584;SDS011;6863;48.402;9.994;2022-10-23T01:20:57;9.30;;;7.93;;
13584;SDS011;6863;48.402;9.994;2022-10-23T01:24:01;8.50;;;7.60;;
13584;SDS011;6863;48.402;9.994;2022-10-23T01:26:49;8.33;;;7.17;;
13584;SDS011;6863;48.402;9.994;2022-10-23T01:29:35;11.20;;;8.07;;
13584;SDS011;6863;48.402;9.994;2022-10-23T01:35:36;8.30;;;7.43;;
13584;SDS011;6863;48.402;9.994;2022-10-23T01:43:59;10.13;;;8.47;;
13584;SDS011;6863;48.402;9.994;2022-10-23T01:46:30;10.63;;;8.60;;
13584;SDS011;6863;48.402;9.994;2022-10-23T01:48:59;10.07;;;9.07;;
13584;SDS011;6863;48.402;9.994;2022-10-23T01:51:28;9.67;;;8.50;;
13584;SDS011;6863;48.402;9.994;2022-10-23T01:53:57;10.57;;;8.83;;
13584;SDS011;6863;48.402;9.994;2022-10-23T01:56:34;9.00;;;8.03;;
13584;SDS011;6863;48.402;9.994;2022-10-23T01:59:07;9.80;;;7.10;;
13584;SDS011;6863;48.402;9.994;2022-10-23T02:01:37;9.77;;;7.30;;
13584;SDS011;6863;48.402;9.994;2022-10-23T02:04:05;8.43;;;7.50;;
13584;SDS011;6863;48.402;9.994;2022-10-23T02:06:34;7.47;;;6.20;;
13584;SDS011;6863;48.402;9.994;2022-10-23T02:09:00;13.27;;;7.10;;
13584;SDS011;6863;48.402;9.994;2022-10-23T02:11:25;8.70;;;7.80;;
13584;SDS011;6863;48.402;9.994;2022-10-23T02:16:41;9.37;;;8.07;;
13584;SDS011;6863;48.402;9.994;2022-10-23T02:19:24;9.83;;;8.93;;
13584;SDS011;6863;48.402;9.994;2022-10-23T02:24:28;9.83;;;8.50;;
13584;SDS011;6863;48.402;9.994;2022-10-23T02:27:00;9.93;;;7.63;;
13584;SDS011;6863;48.402;9.994;2022-10-23T02:29:34;9.30;;;8.40;;
13584;SDS011;6863;48.402;9.994;2022-10-23T02:32:12;9.63;;;8.37;;
13584;SDS011;6863;48.402;9.994;2022-10-23T02:34:39;12.47;;;8.60;;
13584;SDS011;6863;48.402;9.994;2022-10-23T02:37:04;10.03;;;7.97;;
13584;SDS011;6863;48.402;9.994;2022-10-23T02:39:30;8.80;;;7.40;;
13584;SDS011;6863;48.402;9.994;2022-10-23T02:42:05;10.17;;;7.93;;
13584;SDS011;6863;48.402;9.994;2022-10-23T02:47:43;9.57;;;8.27;;
13584;SDS011;6863;48.402;9.994;2022-10-23T02:53:09;10.27;;;8.33;;
13584;SDS011;6863;48.402;9.994;2022-10-23T03:01:27;17.97;;;11.27;;
13584;SDS011;6863;48.402;9.994;2022-10-23T03:04:02;16.77;;;11.70;;
13584;SDS011;6863;48.402;9.994;2022-10-23T03:06:31;14.87;;;12.00;;
13584;SDS011;6863;48.402;9.994;2022-10-23T03:08:58;32.30;;;14.17;;
13584;SDS011;6863;48.402;9.994;2022-10-23T03:11:25;18.83;;;12.77;;
13584;SDS011;6863;48.402;9.994;2022-10-23T03:13:51;23.23;;;13.80;;
13584;SDS011;6863;48.402;9.994;2022-10-23T03:16:17;16.43;;;12.50;;
13584;SDS011;6863;48.402;9.994;2022-10-23T03:18:42;19.40;;;13.67;;
13584;SDS011;6863;48.402;9.994;2022-10-23T03:21:08;21.13;;;13.90;;
13584;SDS011;6863;48.402;9.994;2022-10-23T03:23:33;34.83;;;14.40;;
13584;SDS011;6863;48.402;9.994;2022-10-23T03:25:59;20.93;;;13.40;;
13584;SDS011;6863;48.402;9.994;2022-10-23T03:28:24;46.23;;;15.73;;
13584;SDS011;6863;48.402;9.994;2022-10-23T03:30:50;24.90;;;13.97;;
13584;SDS011;6863;48.402;9.994;2022-10-23T03:33:16;34.33;;;14.80;;
13584;SDS011;6863;48.402;9.994;2022-10-23T03:35:42;38.33;;;15.43;;
13584;SDS011;6863;48.402;9.994;2022-10-23T03:38:07;25.83;;;14.50;;
13584;SDS011;6863;48.402;9.994;2022-10-23T03:40:33;32.33;;;15.20;;
13584;SDS011;6863;48.402;9.994;2022-10-23T03:42:59;34.47;;;14.87;;
13584;SDS011;6863;48.402;9.994;2022-10-23T03:45:24;17.83;;;14.03;;
13584;SDS011;6863;48.402;9.994;2022-10-23T03:47:50;33.53;;;15.90;;
13584;SDS011;6863;48.402;9.994;2022-10-23T03:50:16;42.53;;;16.53;;
13584;SDS011;6863;48.402;9.994;2022-10-23T03:52:43;32.23;;;15.33;;
13584;SDS011;6863;48.402;9.994;2022-10-23T03:55:09;26.10;;;15.43;;
13584;SDS011;6863;48.402;9.994;2022-10-23T03:57:35;23.93;;;15.40;;
13584;SDS011;6863;48.402;9.994;2022-10-23T04:00:01;26.10;;;16.43;;
13584;SDS011;6863;48.402;9.994;2022-10-23T04:02:27;21.03;;;15.23;;
13584;SDS011;6863;48.402;9.994;2022-10-23T04:04:52;32.13;;;16.03;;
13584;SDS011;6863;48.402;9.994;2022-10-23T04:07:18;25.27;;;15.70;;
13584;SDS011;6863;48.402;9.994;2022-10-23T04:09:44;23.27;;;13.77;;
13584;SDS011;6863;48.402;9.994;2022-10-23T04:12:10;19.80;;;14.73;;
13584;SDS011;6863;48.402;9.994;2022-10-23T04:14:35;20.23;;;12.70;;
13584;SDS011;6863;48.402;9.994;2022-10-23T04:17:01;24.50;;;13.47;;
13584;SDS011;6863;48.402;9.994;2022-10-23T04:19:26;17.77;;;12.73;;
13584;SDS011;6863;48.402;9.994;2022-10-23T04:21:52;19.40;;;13.03;;
13584;SDS011;6863;48.402;9.994;2022-10-23T04:24:17;22.37;;;14.43;;
13584;SDS011;6863;48.402;9.994;2022-10-23T04:26:43;20.93;;;15.37;;
13584;SDS011;6863;48.402;9.994;2022-10-23T04:29:09;23.13;;;14.27;;
13584;SDS011;6863;48.402;9.994;2022-10-23T04:31:34;21.87;;;15.23;;
13584;SDS011;6863;48.402;9.994;2022-10-23T04:34:00;22.37;;;15.13;;
13584;SDS011;6863;48.402;9.994;2022-10-23T04:36:25;18.57;;;14.33;;
13584;SDS011;6863;48.402;9.994;2022-10-23T04:38:51;17.63;;;14.20;;
13584;SDS011;6863;48.402;9.994;2022-10-23T04:41:17;17.37;;;14.20;;
13584;SDS011;6863;48.402;9.994;2022-10-23T04:43:43;18.83;;;14.63;;
13584;SDS011;6863;48.402;9.994;2022-10-23T04:46:08;18.33;;;15.70;;
13584;SDS011;6863;48.402;9.994;2022-10-23T04:48:34;18.37;;;15.07;;
13584;SDS011;6863;48.402;9.994;2022-10-23T04:51:00;17.20;;;14.43;;
13584;SDS011;6863;48.402;9.994;2022-10-23T04:53:28;15.83;;;14.13;;
13584;SDS011;6863;48.402;9.994;2022-10-23T04:55:55;14.93;;;13.13;;
13584;SDS011;6863;48.402;9.994;2022-10-23T04:58:22;15.43;;;13.03;;
13584;SDS011;6863;48.402;9.994;2022-10-23T05:00:49;14.00;;;12.57;;
13584;SDS011;6863;48.402;9.994;2022-10-23T05:03:15;14.70;;;12.70;;
13584;SDS011;6863;48.402;9.994;2022-10-23T05:05:42;13.37;;;12.07;;
13584;SDS011;6863;48.402;9.994;2022-10-23T05:08:08;12.43;;;11.23;;
13584;SDS011;6863;48.402;9.994;2022-10-23T05:10:34;11.03;;;9.97;;
13584;SDS011;6863;48.402;9.994;2022-10-23T05:13:00;10.20;;;9.20;;
13584;SDS011;6863;48.402;9.994;2022-10-23T05:15:26;14.33;;;11.13;;
13584;SDS011;6863;48.402;9.994;2022-10-23T05:20:19;15.90;;;10.90;;
13584;SDS011;6863;48.402;9.994;2022-10-23T05:22:48;14.13;;;11.13;;
13584;SDS011;6863;48.402;9.994;2022-10-23T05:25:17;13.13;;;10.60;;
13584;SDS011;6863;48.402;9.994;2022-10-23T05:27:43;10.20;;;9.30;;
13584;SDS011;6863;48.402;9.994;2022-10-23T05:30:09;9.87;;;9.00;;
13584;SDS011;6863;48.402;9.994;2022-10-23T05:32:35;11.67;;;10.47;;
13584;SDS011;6863;48.402;9.994;2022-10-23T05:35:02;12.63;;;11.40;;
13584;SDS011;6863;48.402;9.994;2022-10-23T05:37:38;14.00;;;12.47;;
13584;SDS011;6863;48.402;9.994;2022-10-23T05:40:05;15.80;;;13.87;;
13584;SDS011;6863;48.402;9.994;2022-10-23T05:42:32;14.67;;;13.17;;
13584;SDS011;6863;48.402;9.994;2022-10-23T05:44:58;14.93;;;13.07;;
13584;SDS011;6863;48.402;9.994;2022-10-23T05:47:23;16.13;;;13.37;;
13584;SDS011;6863;48.402;9.994;2022-10-23T05:49:49;14.90;;;13.40;;
13584;SDS011;6863;48.402;9.994;2022-10-23T05:52:14;14.23;;;12.73;;
13584;SDS011;6863;48.402;9.994;2022-10-23T05:54:40;14.33;;;12.30;;
13584;SDS011;6863;48.402;9.994;2022-10-23T05:57:06;13.37;;;11.97;;
13584;SDS011;6863;48.402;9.994;2022-10-23T05:59:31;14.03;;;12.53;;
13584;SDS011;6863;48.402;9.994;2022-10-23T06:01:57;17.80;;;11.80;;
13584;SDS011;6863;48.402;9.994;2022-10-23T06:04:23;16.03;;;12.37;;
13584;SDS011;6863;48.402;9.994;2022-10-23T06:06:48;15.47;;;13.37;;
13584;SDS011;6863;48.402;9.994;2022-10-23T06:09:14;14.70;;;11.70;;
13584;SDS011;6863;48.402;9.994;2022-10-23T06:11:40;13.00;;;11.30;;
13584;SDS011;6863;48.402;9.994;2022-10-23T06:14:06;13.13;;;11.83;;
13584;SDS011;6863;48.402;9.994;2022-10-23T06:16:32;11.97;;;10.50;;
13584;SDS011;6863;48.402;9.994;2022-10-23T06:18:57;12.03;;;10.73;;
13584;SDS011;6863;48.402;9.994;2022-10-23T06:21:24;10.87;;;9.77;;
13584;SDS011;6863;48.402;9.994;2022-10-23T06:23:50;11.50;;;10.40;;
13584;SDS011;6863;48.402;9.994;2022-10-23T06:26:16;9.67;;;8.80;;
13584;SDS011;6863;48.402;9.994;2022-10-23T06:28:43;10.47;;;9.57;;
13584;SDS011;6863;48.402;9.994;2022-10-23T06:31:12;9.63;;;8.73;;
13584;SDS011;6863;48.402;9.994;2022-10-23T06:33:40;9.40;;;8.47;;
13584;SDS011;6863;48.402;9.994;2022-10-23T06:36:06;10.83;;;8.87;;
13584;SDS011;6863;48.402;9.994;2022-10-23T06:38:34;10.03;;;9.13;;
13584;SDS011;6863;48.402;9.994;2022-10-23T06:41:04;8.67;;;7.97;;
13584;SDS011;6863;48.402;9.994;2022-10-23T06:43:31;8.80;;;8.00;;
13584;SDS011;6863;48.402;9.994;2022-10-23T06:46:01;9.00;;;8.10;;
13584;SDS011;6863;48.402;9.994;2022-10-23T06:48:28;8.27;;;7.50;;
13584;SDS011;6863;48.402;9.994;2022-10-23T06:50:54;8.90;;;8.20;;
13584;SDS011;6863;48.402;9.994;2022-10-23T06:53:20;8.80;;;8.10;;
13584;SDS011;6863;48.402;9.994;2022-10-23T06:55:48;9.60;;;8.70;;
13584;SDS011;6863;48.402;9.994;2022-10-23T06:58:14;8.67;;;7.93;;
13584;SDS011;6863;48.402;9.994;2022-10-23T07:00:40;9.63;;;8.73;;
13584;SDS011;6863;48.402;9.994;2022-10-23T07:03:05;10.40;;;9.07;;
13584;SDS011;6863;48.402;9.994;2022-10-23T07:05:33;9.73;;;8.83;;
13584;SDS011;6863;48.402;9.994;2022-10-23T07:07:59;8.33;;;7.67;;
13584;SDS011;6863;48.402;9.994;2022-10-23T07:10:25;8.67;;;7.87;;
13584;SDS011;6863;48.402;9.994;2022-10-23T07:12:51;7.90;;;7.20;;
13584;SDS011;6863;48.402;9.994;2022-10-23T07:15:16;8.93;;;8.13;;
13584;SDS011;6863;48.402;9.994;2022-10-23T07:17:42;8.47;;;7.77;;
13584;SDS011;6863;48.402;9.994;2022-10-23T07:20:07;8.93;;;8.13;;
13584;SDS011;6863;48.402;9.994;2022-10-23T07:22:33;9.00;;;8.10;;
13584;SDS011;6863;48.402;9.994;2022-10-23T07:24:59;9.43;;;8.53;;
13584;SDS011;6863;48.402;9.994;2022-10-23T07:27:24;10.60;;;9.57;;
13584;SDS011;6863;48.402;9.994;2022-10-23T07:29:50;9.13;;;8.33;;
13584;SDS011;6863;48.402;9.994;2022-10-23T07:32:16;9.43;;;7.90;;
13584;SDS011;6863;48.402;9.994;2022-10-23T07:34:42;9.00;;;8.10;;
13584;SDS011;6863;48.402;9.994;2022-10-23T07:37:07;9.47;;;8.57;;
13584;SDS011;6863;48.402;9.994;2022-10-23T07:39:33;9.40;;;8.50;;
13584;SDS011;6863;48.402;9.994;2022-10-23T07:41:59;11.57;;;8.97;;
13584;SDS011;6863;48.402;9.994;2022-10-23T07:44:25;8.87;;;8.07;;
13584;SDS011;6863;48.402;9.994;2022-10-23T07:46:50;11.27;;;9.07;;
13584;SDS011;6863;48.402;9.994;2022-10-23T07:49:16;9.70;;;8.80;;
13584;SDS011;6863;48.402;9.994;2022-10-23T07:51:42;9.10;;;8.23;;
13584;SDS011;6863;48.402;9.994;2022-10-23T07:54:09;8.60;;;7.80;;
13584;SDS011;6863;48.402;9.994;2022-10-23T07:56:36;9.20;;;8.30;;
13584;SDS011;6863;48.402;9.994;2022-10-23T07:59:02;8.40;;;7.70;;
13584;SDS011;6863;48.402;9.994;2022-10-23T08:01:32;8.33;;;7.50;;
13584;SDS011;6863;48.402;9.994;2022-10-23T08:04:01;8.40;;;7.50;;
13584;SDS011;6863;48.402;9.994;2022-10-23T08:06:27;8.30;;;7.60;;
13584;SDS011;6863;48.402;9.994;2022-10-23T08:08:52;7.90;;;7.20;;
13584;SDS011;6863;48.402;9.994;2022-10-23T08:11:19;8.07;;;7.33;;
13584;SDS011;6863;48.402;9.994;2022-10-23T08:13:51;7.50;;;6.90;;
13584;SDS011;6863;48.402;9.994;2022-10-23T08:16:20;7.90;;;7.10;;
13584;SDS011;6863;48.402;9.994;2022-10-23T08:18:47;7.60;;;6.80;;
13584;SDS011;6863;48.402;9.994;2022-10-23T08:21:13;7.10;;;6.53;;
13584;SDS011;6863;48.402;9.994;2022-10-23T08:23:40;7.63;;;7.03;;
13584;SDS011;6863;48.402;9.994;2022-10-23T08:26:07;7.80;;;7.10;;
13584;SDS011;6863;48.402;9.994;2022-10-23T08:28:33;7.23;;;6.63;;
13584;SDS011;6863;48.402;9.994;2022-10-23T08:31:05;6.07;;;5.57;;
13584;SDS011;6863;48.402;9.994;2022-10-23T08:33:35;6.50;;;6.00;;
13584;SDS011;6863;48.402;9.994;2022-10-23T08:36:01;7.00;;;6.40;;
13584;SDS011;6863;48.402;9.994;2022-10-23T08:38:27;6.40;;;5.90;;
13584;SDS011;6863;48.402;9.994;2022-10-23T08:40:53;6.57;;;6.07;;
13584;SDS011;6863;48.402;9.994;2022-10-23T08:43:20;6.83;;;6.27;;
13584;SDS011;6863;48.402;9.994;2022-10-23T08:46:09;6.97;;;6.37;;
13584;SDS011;6863;48.402;9.994;2022-10-23T08:48:41;7.00;;;6.40;;
13584;SDS011;6863;48.402;9.994;2022-10-23T08:51:31;9.13;;;7.57;;
13584;SDS011;6863;48.402;9.994;2022-10-23T08:54:04;28.37;;;21.73;;
13584;SDS011;6863;48.402;9.994;2022-10-23T08:56:42;7.00;;;6.40;;
13584;SDS011;6863;48.402;9.994;2022-10-23T08:59:35;8.27;;;7.07;;
13584;SDS011;6863;48.402;9.994;2022-10-23T09:04:32;7.27;;;6.60;;
13584;SDS011;6863;48.402;9.994;2022-10-23T09:12:26;8.53;;;7.73;;
13584;SDS011;6863;48.402;9.994;2022-10-23T09:17:39;7.87;;;7.17;;
13584;SDS011;6863;48.402;9.994;2022-10-23T09:20:11;6.33;;;5.83;;
13584;SDS011;6863;48.402;9.994;2022-10-23T09:22:43;6.43;;;5.90;;
13584;SDS011;6863;48.402;9.994;2022-10-23T09:25:10;5.87;;;5.37;;
13584;SDS011;6863;48.402;9.994;2022-10-23T09:28:00;6.10;;;5.60;;
13584;SDS011;6863;48.402;9.994;2022-10-23T09:32:54;5.18;;;4.75;;
13584;SDS011;6863;48.402;9.994;2022-10-23T09:35:23;5.53;;;5.03;;
13584;SDS011;6863;48.402;9.994;2022-10-23T09:37:50;6.10;;;5.70;;
13584;SDS011;6863;48.402;9.994;2022-10-23T09:43:13;5.05;;;4.65;;
13584;SDS011;6863;48.402;9.994;2022-10-23T09:45:40;5.47;;;5.00;;
13584;SDS011;6863;48.402;9.994;2022-10-23T09:53:24;5.80;;;5.40;;
13584;SDS011;6863;48.402;9.994;2022-10-23T09:56:06;5.22;;;4.93;;
13584;SDS011;6863;48.402;9.994;2022-10-23T09:59:30;5.57;;;5.18;;
13584;SDS011;6863;48.402;9.994;2022-10-23T10:01:44;5.68;;;5.28;;
13584;SDS011;6863;48.402;9.994;2022-10-23T10:04:14;5.50;;;5.07;;
13584;SDS011;6863;48.402;9.994;2022-10-23T10:06:40;5.00;;;4.70;;
13584;SDS011;6863;48.402;9.994;2022-10-23T10:09:11;6.00;;;5.60;;
13584;SDS011;6863;48.402;9.994;2022-10-23T10:11:50;5.95;;;5.45;;
13584;SDS011;6863;48.402;9.994;2022-10-23T10:17:19;5.65;;;5.10;;
13584;SDS011;6863;48.402;9.994;2022-10-23T10:23:06;4.20;;;3.83;;
13584;SDS011;6863;48.402;9.994;2022-10-23T10:26:02;4.10;;;3.83;;
13584;SDS011;6863;48.402;9.994;2022-10-23T10:36:51;4.20;;;3.90;;
13584;SDS011;6863;48.402;9.994;2022-10-23T10:39:43;4.32;;;4.03;;
13584;SDS011;6863;48.402;9.994;2022-10-23T10:48:20;3.95;;;3.65;;
13584;SDS011;6863;48.402;9.994;2022-10-23T10:53:54;3.85;;;3.65;;
13584;SDS011;6863;48.402;9.994;2022-10-23T10:56:46;3.65;;;3.35;;
13584;SDS011;6863;48.402;9.994;2022-10-23T11:01:49;5.00;;;4.60;;
13584;SDS011;6863;48.402;9.994;2022-10-23T11:04:39;4.45;;;4.15;;
13584;SDS011;6863;48.402;9.994;2022-10-23T11:07:12;4.18;;;3.88;;
13584;SDS011;6863;48.402;9.994;2022-10-23T11:09:42;4.78;;;4.38;;
13584;SDS011;6863;48.402;9.994;2022-10-23T11:12:17;4.30;;;4.00;;
13584;SDS011;6863;48.402;9.994;2022-10-23T11:14:47;4.47;;;4.18;;
13584;SDS011;6863;48.402;9.994;2022-10-23T11:17:24;5.25;;;4.07;;
13584;SDS011;6863;48.402;9.994;2022-10-23T11:23:20;4.38;;;4.07;;
13584;SDS011;6863;48.402;9.994;2022-10-23T11:28:38;5.13;;;4.72;;
13584;SDS011;6863;48.402;9.994;2022-10-23T11:34:07;5.40;;;4.82;;
13584;SDS011;6863;48.402;9.994;2022-10-23T11:36:45;17.65;;;14.23;;
13584;SDS011;6863;48.402;9.994;2022-10-23T11:41:56;24.50;;;18.90;;
13584;SDS011;6863;48.402;9.994;2022-10-23T11:52:33;3.45;;;3.25;;
13584;SDS011;6863;48.402;9.994;2022-10-23T11:55:04;3.78;;;3.58;;
13584;SDS011;6863;48.402;9.994;2022-10-23T11:57:58;4.40;;;4.00;;
13584;SDS011;6863;48.402;9.994;2022-10-23T12:00:29;5.68;;;4.60;;
13584;SDS011;6863;48.402;9.994;2022-10-23T12:02:56;4.60;;;4.20;;
13584;SDS011;6863;48.402;9.994;2022-10-23T12:07:59;3.50;;;3.25;;
13584;SDS011;6863;48.402;9.994;2022-10-23T12:10:35;4.30;;;4.00;;
13584;SDS011;6863;48.402;9.994;2022-10-23T12:13:26;5.38;;;4.97;;
13584;SDS011;6863;48.402;9.994;2022-10-23T12:16:08;4.18;;;3.88;;
13584;SDS011;6863;48.402;9.994;2022-10-23T12:18:43;4.70;;;4.20;;
13584;SDS011;6863;48.402;9.994;2022-10-23T12:21:23;3.50;;;3.22;;
13584;SDS011;6863;48.402;9.994;2022-10-23T12:26:38;3.97;;;3.67;;
13584;SDS011;6863;48.402;9.994;2022-10-23T12:31:58;4.45;;;4.15;;
13584;SDS011;6863;48.402;9.994;2022-10-23T12:34:50;4.72;;;4.32;;
13584;SDS011;6863;48.402;9.994;2022-10-23T12:40:14;5.65;;;4.95;;
13584;SDS011;6863;48.402;9.994;2022-10-23T12:42:40;4.50;;;4.20;;
13584;SDS011;6863;48.402;9.994;2022-10-23T12:47:55;4.65;;;4.20;;
13584;SDS011;6863;48.402;9.994;2022-10-23T12:50:25;4.28;;;3.97;;
13584;SDS011;6863;48.402;9.994;2022-10-23T12:53:00;4.00;;;3.70;;
13584;SDS011;6863;48.402;9.994;2022-10-23T12:55:48;4.18;;;3.53;;
13584;SDS011;6863;48.402;9.994;2022-10-23T12:58:19;3.42;;;2.97;;
13584;SDS011;6863;48.402;9.994;2022-10-23T13:01:20;3.17;;;2.88;;
13584;SDS011;6863;48.402;9.994;2022-10-23T13:03:51;3.22;;;2.92;;
13584;SDS011;6863;48.402;9.994;2022-10-23T13:06:22;2.88;;;2.67;;
13584;SDS011;6863;48.402;9.994;2022-10-23T13:08:48;3.22;;;2.90;;
13584;SDS011;6863;48.402;9.994;2022-10-23T13:11:15;2.63;;;2.42;;
13584;SDS011;6863;48.402;9.994;2022-10-23T13:13:42;3.10;;;2.90;;
13584;SDS011;6863;48.402;9.994;2022-10-23T13:18:41;3.60;;;2.60;;
13584;SDS011;6863;48.402;9.994;2022-10-23T13:21:13;2.70;;;2.60;;
13584;SDS011;6863;48.402;9.994;2022-10-23T13:23:41;2.42;;;2.22;;
13584;SDS011;6863;48.402;9.994;2022-10-23T13:28:48;2.90;;;2.70;;
13584;SDS011;6863;48.402;9.994;2022-10-23T13:33:41;2.75;;;2.65;;
13584;SDS011;6863;48.402;9.994;2022-10-23T13:38:40;2.70;;;2.50;;
13584;SDS011;6863;48.402;9.994;2022-10-23T13:41:17;3.03;;;2.50;;
13584;SDS011;6863;48.402;9.994;2022-10-23T13:43:44;3.00;;;2.80;;
13584;SDS011;6863;48.402;9.994;2022-10-23T13:46:12;4.70;;;2.80;;
13584;SDS011;6863;48.402;9.994;2022-10-23T13:48:42;2.90;;;2.67;;
13584;SDS011;6863;48.402;9.994;2022-10-23T13:51:12;2.97;;;2.55;;
13584;SDS011;6863;48.402;9.994;2022-10-23T13:53:49;3.47;;;3.20;;
13584;SDS011;6863;48.402;9.994;2022-10-23T13:56:16;3.78;;;2.70;;
13584;SDS011;6863;48.402;9.994;2022-10-23T13:58:43;3.58;;;3.28;;
13584;SDS011;6863;48.402;9.994;2022-10-23T14:03:44;2.97;;;2.78;;
13584;SDS011;6863;48.402;9.994;2022-10-23T14:06:11;3.65;;;3.00;;
13584;SDS011;6863;48.402;9.994;2022-10-23T14:08:36;3.33;;;3.08;;
13584;SDS011;6863;48.402;9.994;2022-10-23T14:11:02;3.63;;;3.33;;
13584;SDS011;6863;48.402;9.994;2022-10-23T14:13:27;5.38;;;3.55;;
13584;SDS011;6863;48.402;9.994;2022-10-23T14:15:53;3.67;;;3.22;;
13584;SDS011;6863;48.402;9.994;2022-10-23T14:18:19;3.40;;;3.10;;
13584;SDS011;6863;48.402;9.994;2022-10-23T14:20:45;3.70;;;3.13;;
13584;SDS011;6863;48.402;9.994;2022-10-23T14:23:10;3.00;;;2.80;;
13584;SDS011;6863;48.402;9.994;2022-10-23T14:25:36;6.18;;;4.05;;
13584;SDS011;6863;48.402;9.994;2022-10-23T14:28:02;3.80;;;3.50;;
13584;SDS011;6863;48.402;9.994;2022-10-23T14:30:27;5.35;;;3.45;;
13584;SDS011;6863;48.402;9.994;2022-10-23T14:32:53;5.32;;;4.05;;
13584;SDS011;6863;48.402;9.994;2022-10-23T14:35:18;6.43;;;3.70;;
13584;SDS011;6863;48.402;9.994;2022-10-23T14:37:44;3.95;;;3.58;;
13584;SDS011;6863;48.402;9.994;2022-10-23T14:40:10;4.10;;;3.80;;
13584;SDS011;6863;48.402;9.994;2022-10-23T14:42:36;5.50;;;5.00;;
13584;SDS011;6863;48.402;9.994;2022-10-23T14:45:01;4.30;;;4.00;;
13584;SDS011;6863;48.402;9.994;2022-10-23T14:47:28;6.07;;;3.72;;
13584;SDS011;6863;48.402;9.994;2022-10-23T14:49:54;4.40;;;4.00;;
13584;SDS011;6863;48.402;9.994;2022-10-23T14:52:20;6.30;;;3.88;;
13584;SDS011;6863;48.402;9.994;2022-10-23T14:54:46;5.50;;;3.95;;
13584;SDS011;6863;48.402;9.994;2022-10-23T14:57:12;5.13;;;4.05;;
13584;SDS011;6863;48.402;9.994;2022-10-23T14:59:40;4.82;;;4.10;;
13584;SDS011;6863;48.402;9.994;2022-10-23T15:02:08;4.57;;;3.72;;
13584;SDS011;6863;48.402;9.994;2022-10-23T15:04:35;37.50;;;28.17;;
13584;SDS011;6863;48.402;9.994;2022-10-23T15:07:01;4.45;;;4.05;;
13584;SDS011;6863;48.402;9.994;2022-10-23T15:09:26;3.85;;;3.50;;
13584;SDS011;6863;48.402;9.994;2022-10-23T15:11:52;3.50;;;3.30;;
13584;SDS011;6863;48.402;9.994;2022-10-23T15:14:18;4.05;;;3.70;;
13584;SDS011;6863;48.402;9.994;2022-10-23T15:16:44;4.13;;;3.80;;
13584;SDS011;6863;48.402;9.994;2022-10-23T15:19:10;4.65;;;3.53;;
13584;SDS011;6863;48.402;9.994;2022-10-23T15:21:37;4.72;;;4.03;;
13584;SDS011;6863;48.402;9.994;2022-10-23T15:24:02;4.28;;;3.88;;
13584;SDS011;6863;48.402;9.994;2022-10-23T15:26:28;4.00;;;3.70;;
13584;SDS011;6863;48.402;9.994;2022-10-23T15:28:56;5.15;;;4.43;;
13584;SDS011;6863;48.402;9.994;2022-10-23T15:31:38;4.40;;;3.00;;
13584;SDS011;6863;48.402;9.994;2022-10-23T15:34:11;3.45;;;3.10;;
13584;SDS011;6863;48.402;9.994;2022-10-23T15:36:40;3.53;;;3.22;;
13584;SDS011;6863;48.402;9.994;2022-10-23T15:39:07;3.25;;;3.05;;
13584;SDS011;6863;48.402;9.994;2022-10-23T15:41:34;3.30;;;3.10;;
13584;SDS011;6863;48.402;9.994;2022-10-23T15:44:01;3.47;;;3.17;;
13584;SDS011;6863;48.402;9.994;2022-10-23T15:46:28;5.28;;;3.40;;
13584;SDS011;6863;48.402;9.994;2022-10-23T15:48:54;4.05;;;3.65;;
13584;SDS011;6863;48.402;9.994;2022-10-23T15:51:19;3.60;;;3.30;;
13584;SDS011;6863;48.402;9.994;2022-10-23T15:53:46;5.70;;;3.83;;
13584;SDS011;6863;48.402;9.994;2022-10-23T15:56:12;6.03;;;5.20;;
13584;SDS011;6863;48.402;9.994;2022-10-23T15:58:37;4.15;;;3.78;;
13584;SDS011;6863;48.402;9.994;2022-10-23T16:01:03;5.45;;;4.25;;
13584;SDS011;6863;48.402;9.994;2022-10-23T16:03:33;4.22;;;3.53;;
13584;SDS011;6863;48.402;9.994;2022-10-23T16:06:03;4.57;;;4.00;;
13584;SDS011;6863;48.402;9.994;2022-10-23T16:08:30;7.53;;;6.72;;
13584;SDS011;6863;48.402;9.994;2022-10-23T16:10:55;7.97;;;7.18;;
13584;SDS011;6863;48.402;9.994;2022-10-23T16:13:23;11.75;;;4.55;;
13584;SDS011;6863;48.402;9.994;2022-10-23T16:15:48;5.50;;;4.47;;
13584;SDS011;6863;48.402;9.994;2022-10-23T16:18:14;6.93;;;4.13;;
13584;SDS011;6863;48.402;9.994;2022-10-23T16:20:42;4.18;;;3.78;;
13584;SDS011;6863;48.402;9.994;2022-10-23T16:23:07;4.63;;;4.22;;
13584;SDS011;6863;48.402;9.994;2022-10-23T16:25:36;9.38;;;8.68;;
13584;SDS011;6863;48.402;9.994;2022-10-23T16:28:02;6.68;;;4.85;;
13584;SDS011;6863;48.402;9.994;2022-10-23T16:30:28;4.80;;;4.40;;
13584;SDS011;6863;48.402;9.994;2022-10-23T16:32:54;6.75;;;4.68;;
13584;SDS011;6863;48.402;9.994;2022-10-23T16:35:20;8.20;;;5.00;;
13584;SDS011;6863;48.402;9.994;2022-10-23T16:37:46;7.97;;;6.32;;
13584;SDS011;6863;48.402;9.994;2022-10-23T16:40:12;10.18;;;6.80;;
13584;SDS011;6863;48.402;9.994;2022-10-23T16:42:38;7.38;;;6.57;;
13584;SDS011;6863;48.402;9.994;2022-10-23T16:45:04;8.35;;;6.93;;
13584;SDS011;6863;48.402;9.994;2022-10-23T16:47:31;8.20;;;6.93;;
13584;SDS011;6863;48.402;9.994;2022-10-23T16:49:57;11.73;;;9.60;;
13584;SDS011;6863;48.402;9.994;2022-10-23T16:52:23;12.00;;;10.70;;
13584;SDS011;6863;48.402;9.994;2022-10-23T16:54:50;8.43;;;7.63;;
13584;SDS011;6863;48.402;9.994;2022-10-23T16:57:15;8.60;;;7.38;;
13584;SDS011;6863;48.402;9.994;2022-10-23T16:59:41;8.27;;;7.47;;
13584;SDS011;6863;48.402;9.994;2022-10-23T17:02:08;8.95;;;7.45;;
13584;SDS011;6863;48.402;9.994;2022-10-23T17:04:36;9.00;;;6.97;;
13584;SDS011;6863;48.402;9.994;2022-10-23T17:07:02;8.13;;;7.32;;
13584;SDS011;6863;48.402;9.994;2022-10-23T17:09:28;8.65;;;7.85;;
13584;SDS011;6863;48.402;9.994;2022-10-23T17:11:55;10.45;;;7.95;;
13584;SDS011;6863;48.402;9.994;2022-10-23T17:14:21;8.27;;;7.45;;
13584;SDS011;6863;48.402;9.994;2022-10-23T17:16:53;8.27;;;7.47;;